KBIH/BIH METAR and TAF weather

Enter ICAO airport designator
Station Type Date Time Source
KBIH METAR 2018/12/13 14:56 UTC NOAA

KBIH 131456Z AUTO 35004KT 10SM CLR M04/M11 A3037 RMK AO2 SLP293 T10441106 51015


Station Type Date Time Source
KBIH Decoded METAR 2018/12/13 14:56 UTC NOAA

BISHOP AIRPORT, CA, United States (KBIH) 37-22N 118-22W 1253M
Dec 13, 2018 - 09:56 AM EST / 2018.12.13 1456 UTC
Wind: from the N (350 degrees) at 5 MPH (4 KT):0
Visibility: 10 mile(s):0
Sky conditions: clear
Temperature: 24.1 F (-4.4 C)
Windchill: 17 F (-8 C):1
Dew Point: 12.9 F (-10.6 C)
Relative Humidity: 61%
Pressure (altimeter): 30.37 in. Hg (1028 hPa)
Pressure tendency: 0.04 inches (1.5 hPa) higher than three hours ago
ob: KBIH 131456Z AUTO 35004KT 10SM CLR M04/M11 A3037 RMK AO2 SLP293 T10441106 51015
cycle: 15

Station Type Date Time Source
KBIH TAF 2018/12/13 12:24 UTC NOAA

TAF KBIH 131123Z 1312/1412 34011KT P6SM SCT250
FM131700 VRB05KT P6SM FEW250
FM140300 32006KT P6SM SCT250


Example: see airport list